sensor_id;sensor_type;location;lat;lon;timestamp;P1;durP1;ratioP1;P2;durP2;ratioP2
9115;SDS011;4593;53.652;10.168;2022-07-23T00:01:30;3.67;;;1.90;;
9115;SDS011;4593;53.652;10.168;2022-07-23T00:03:56;4.20;;;2.30;;
9115;SDS011;4593;53.652;10.168;2022-07-23T00:06:23;2.63;;;1.90;;
9115;SDS011;4593;53.652;10.168;2022-07-23T00:08:49;2.20;;;1.70;;
9115;SDS011;4593;53.652;10.168;2022-07-23T00:11:15;2.63;;;1.90;;
9115;SDS011;4593;53.652;10.168;2022-07-23T00:13:41;2.03;;;1.83;;
9115;SDS011;4593;53.652;10.168;2022-07-23T00:16:07;2.97;;;2.03;;
9115;SDS011;4593;53.652;10.168;2022-07-23T00:18:33;2.00;;;1.73;;
9115;SDS011;4593;53.652;10.168;2022-07-23T00:20:59;2.07;;;1.87;;
9115;SDS011;4593;53.652;10.168;2022-07-23T00:23:25;5.27;;;1.90;;
9115;SDS011;4593;53.652;10.168;2022-07-23T00:25:53;2.87;;;1.70;;
9115;SDS011;4593;53.652;10.168;2022-07-23T00:28:19;2.10;;;1.80;;
9115;SDS011;4593;53.652;10.168;2022-07-23T00:30:46;1.90;;;1.80;;
9115;SDS011;4593;53.652;10.168;2022-07-23T00:33:12;3.37;;;2.00;;
9115;SDS011;4593;53.652;10.168;2022-07-23T00:35:38;2.67;;;1.70;;
9115;SDS011;4593;53.652;10.168;2022-07-23T00:38:08;1.87;;;1.77;;
9115;SDS011;4593;53.652;10.168;2022-07-23T00:40:35;1.70;;;1.60;;
9115;SDS011;4593;53.652;10.168;2022-07-23T00:43:01;3.50;;;2.10;;
9115;SDS011;4593;53.652;10.168;2022-07-23T00:45:28;1.70;;;1.60;;
9115;SDS011;4593;53.652;10.168;2022-07-23T00:47:54;1.97;;;1.50;;
9115;SDS011;4593;53.652;10.168;2022-07-23T00:50:20;3.03;;;1.90;;
9115;SDS011;4593;53.652;10.168;2022-07-23T00:52:46;2.63;;;1.73;;
9115;SDS011;4593;53.652;10.168;2022-07-23T00:55:12;3.40;;;1.90;;
9115;SDS011;4593;53.652;10.168;2022-07-23T00:57:39;2.57;;;1.80;;
9115;SDS011;4593;53.652;10.168;2022-07-23T01:00:06;8.30;;;1.90;;
9115;SDS011;4593;53.652;10.168;2022-07-23T01:02:36;2.77;;;1.67;;
9115;SDS011;4593;53.652;10.168;2022-07-23T01:05:03;4.03;;;1.90;;
9115;SDS011;4593;53.652;10.168;2022-07-23T01:07:29;1.73;;;1.63;;
9115;SDS011;4593;53.652;10.168;2022-07-23T01:09:55;3.73;;;1.87;;
9115;SDS011;4593;53.652;10.168;2022-07-23T01:12:22;3.50;;;1.70;;
9115;SDS011;4593;53.652;10.168;2022-07-23T01:14:58;1.73;;;1.63;;
9115;SDS011;4593;53.652;10.168;2022-07-23T01:17:24;1.50;;;1.40;;
9115;SDS011;4593;53.652;10.168;2022-07-23T01:19:51;3.13;;;1.90;;
9115;SDS011;4593;53.652;10.168;2022-07-23T01:22:18;2.03;;;1.77;;
9115;SDS011;4593;53.652;10.168;2022-07-23T01:24:44;4.53;;;2.07;;
9115;SDS011;4593;53.652;10.168;2022-07-23T01:27:10;3.07;;;1.70;;
9115;SDS011;4593;53.652;10.168;2022-07-23T01:29:37;2.00;;;1.73;;
9115;SDS011;4593;53.652;10.168;2022-07-23T01:32:03;1.80;;;1.70;;
9115;SDS011;4593;53.652;10.168;2022-07-23T01:34:30;1.93;;;1.70;;
9115;SDS011;4593;53.652;10.168;2022-07-23T01:36:56;5.90;;;1.87;;
9115;SDS011;4593;53.652;10.168;2022-07-23T01:39:22;1.70;;;1.60;;
9115;SDS011;4593;53.652;10.168;2022-07-23T01:41:47;2.63;;;1.70;;
9115;SDS011;4593;53.652;10.168;2022-07-23T01:44:13;1.93;;;1.83;;
9115;SDS011;4593;53.652;10.168;2022-07-23T01:46:40;2.43;;;1.83;;
9115;SDS011;4593;53.652;10.168;2022-07-23T01:49:06;2.53;;;1.90;;
9115;SDS011;4593;53.652;10.168;2022-07-23T01:51:32;1.80;;;1.70;;
9115;SDS011;4593;53.652;10.168;2022-07-23T01:53:58;1.80;;;1.70;;
9115;SDS011;4593;53.652;10.168;2022-07-23T01:56:24;1.70;;;1.60;;
9115;SDS011;4593;53.652;10.168;2022-07-23T01:58:50;6.47;;;1.90;;
9115;SDS011;4593;53.652;10.168;2022-07-23T02:01:16;4.70;;;2.03;;
9115;SDS011;4593;53.652;10.168;2022-07-23T02:03:42;2.00;;;1.80;;
9115;SDS011;4593;53.652;10.168;2022-07-23T02:06:08;1.73;;;1.63;;
9115;SDS011;4593;53.652;10.168;2022-07-23T02:08:33;8.47;;;1.80;;
9115;SDS011;4593;53.652;10.168;2022-07-23T02:10:59;3.67;;;1.80;;
9115;SDS011;4593;53.652;10.168;2022-07-23T02:13:25;3.87;;;1.70;;
9115;SDS011;4593;53.652;10.168;2022-07-23T02:15:51;2.57;;;1.70;;
9115;SDS011;4593;53.652;10.168;2022-07-23T02:18:17;2.03;;;1.80;;
9115;SDS011;4593;53.652;10.168;2022-07-23T02:20:43;2.57;;;1.77;;
9115;SDS011;4593;53.652;10.168;2022-07-23T02:23:09;1.80;;;1.70;;
9115;SDS011;4593;53.652;10.168;2022-07-23T02:25:35;3.20;;;1.73;;
9115;SDS011;4593;53.652;10.168;2022-07-23T02:28:02;4.63;;;1.70;;
9115;SDS011;4593;53.652;10.168;2022-07-23T02:30:28;1.97;;;1.80;;
9115;SDS011;4593;53.652;10.168;2022-07-23T02:32:54;5.17;;;1.70;;
9115;SDS011;4593;53.652;10.168;2022-07-23T02:35:20;4.17;;;1.60;;
9115;SDS011;4593;53.652;10.168;2022-07-23T02:37:46;3.93;;;1.77;;
9115;SDS011;4593;53.652;10.168;2022-07-23T02:40:12;1.80;;;1.70;;
9115;SDS011;4593;53.652;10.168;2022-07-23T02:42:38;1.87;;;1.60;;
9115;SDS011;4593;53.652;10.168;2022-07-23T02:45:04;2.57;;;1.50;;
9115;SDS011;4593;53.652;10.168;2022-07-23T02:47:30;3.97;;;1.80;;
9115;SDS011;4593;53.652;10.168;2022-07-23T02:49:57;3.27;;;1.90;;
9115;SDS011;4593;53.652;10.168;2022-07-23T02:52:23;4.43;;;1.53;;
9115;SDS011;4593;53.652;10.168;2022-07-23T02:54:49;3.90;;;2.00;;
9115;SDS011;4593;53.652;10.168;2022-07-23T02:57:15;1.90;;;1.70;;
9115;SDS011;4593;53.652;10.168;2022-07-23T02:59:41;1.73;;;1.63;;
9115;SDS011;4593;53.652;10.168;2022-07-23T03:02:06;2.90;;;1.90;;
9115;SDS011;4593;53.652;10.168;2022-07-23T03:04:33;1.90;;;1.80;;
9115;SDS011;4593;53.652;10.168;2022-07-23T03:06:59;2.23;;;1.73;;
9115;SDS011;4593;53.652;10.168;2022-07-23T03:09:25;1.87;;;1.60;;
9115;SDS011;4593;53.652;10.168;2022-07-23T03:11:51;1.97;;;1.87;;
9115;SDS011;4593;53.652;10.168;2022-07-23T03:14:17;1.80;;;1.70;;
9115;SDS011;4593;53.652;10.168;2022-07-23T03:16:43;2.70;;;1.97;;
9115;SDS011;4593;53.652;10.168;2022-07-23T03:19:09;1.60;;;1.50;;
9115;SDS011;4593;53.652;10.168;2022-07-23T03:21:35;4.30;;;1.80;;
9115;SDS011;4593;53.652;10.168;2022-07-23T03:24:05;3.03;;;1.70;;
9115;SDS011;4593;53.652;10.168;2022-07-23T03:26:31;2.03;;;1.83;;
9115;SDS011;4593;53.652;10.168;2022-07-23T03:28:57;1.97;;;1.60;;
9115;SDS011;4593;53.652;10.168;2022-07-23T03:31:23;2.90;;;2.00;;
9115;SDS011;4593;53.652;10.168;2022-07-23T03:33:49;1.97;;;1.87;;
9115;SDS011;4593;53.652;10.168;2022-07-23T03:36:15;2.27;;;2.07;;
9115;SDS011;4593;53.652;10.168;2022-07-23T03:38:41;1.60;;;1.50;;
9115;SDS011;4593;53.652;10.168;2022-07-23T03:41:07;2.87;;;1.80;;
9115;SDS011;4593;53.652;10.168;2022-07-23T03:43:33;4.43;;;1.70;;
9115;SDS011;4593;53.652;10.168;2022-07-23T03:45:59;1.87;;;1.60;;
9115;SDS011;4593;53.652;10.168;2022-07-23T03:48:25;1.80;;;1.70;;
9115;SDS011;4593;53.652;10.168;2022-07-23T03:50:51;2.23;;;1.80;;
9115;SDS011;4593;53.652;10.168;2022-07-23T03:53:17;2.03;;;1.93;;
9115;SDS011;4593;53.652;10.168;2022-07-23T03:55:43;1.90;;;1.73;;
9115;SDS011;4593;53.652;10.168;2022-07-23T03:58:09;3.00;;;1.90;;
9115;SDS011;4593;53.652;10.168;2022-07-23T04:00:35;1.70;;;1.60;;
9115;SDS011;4593;53.652;10.168;2022-07-23T04:03:01;3.87;;;1.60;;
9115;SDS011;4593;53.652;10.168;2022-07-23T04:05:27;1.97;;;1.80;;
9115;SDS011;4593;53.652;10.168;2022-07-23T04:07:53;6.50;;;1.90;;
9115;SDS011;4593;53.652;10.168;2022-07-23T04:10:19;3.83;;;1.70;;
9115;SDS011;4593;53.652;10.168;2022-07-23T04:12:45;1.60;;;1.50;;
9115;SDS011;4593;53.652;10.168;2022-07-23T04:15:11;1.70;;;1.60;;
9115;SDS011;4593;53.652;10.168;2022-07-23T04:17:37;3.57;;;2.10;;
9115;SDS011;4593;53.652;10.168;2022-07-23T04:20:03;1.80;;;1.70;;
9115;SDS011;4593;53.652;10.168;2022-07-23T04:22:29;4.03;;;1.73;;
9115;SDS011;4593;53.652;10.168;2022-07-23T04:24:55;3.07;;;1.77;;
9115;SDS011;4593;53.652;10.168;2022-07-23T04:27:20;2.37;;;1.60;;
9115;SDS011;4593;53.652;10.168;2022-07-23T04:29:46;2.87;;;1.60;;
9115;SDS011;4593;53.652;10.168;2022-07-23T04:32:13;3.00;;;2.00;;
9115;SDS011;4593;53.652;10.168;2022-07-23T04:34:39;1.73;;;1.63;;
9115;SDS011;4593;53.652;10.168;2022-07-23T04:37:05;1.80;;;1.70;;
9115;SDS011;4593;53.652;10.168;2022-07-23T04:39:31;5.07;;;1.50;;
9115;SDS011;4593;53.652;10.168;2022-07-23T04:41:57;1.80;;;1.70;;
9115;SDS011;4593;53.652;10.168;2022-07-23T04:44:23;2.37;;;1.73;;
9115;SDS011;4593;53.652;10.168;2022-07-23T04:46:49;1.77;;;1.60;;
9115;SDS011;4593;53.652;10.168;2022-07-23T04:49:15;3.03;;;1.80;;
9115;SDS011;4593;53.652;10.168;2022-07-23T04:51:41;3.43;;;1.90;;
9115;SDS011;4593;53.652;10.168;2022-07-23T04:54:07;5.43;;;1.70;;
9115;SDS011;4593;53.652;10.168;2022-07-23T04:56:33;2.40;;;1.67;;
9115;SDS011;4593;53.652;10.168;2022-07-23T04:58:59;1.60;;;1.50;;
9115;SDS011;4593;53.652;10.168;2022-07-23T05:01:25;4.40;;;1.50;;
9115;SDS011;4593;53.652;10.168;2022-07-23T05:03:51;2.70;;;1.53;;
9115;SDS011;4593;53.652;10.168;2022-07-23T05:06:17;2.23;;;1.67;;
9115;SDS011;4593;53.652;10.168;2022-07-23T05:08:43;2.67;;;1.90;;
9115;SDS011;4593;53.652;10.168;2022-07-23T05:11:09;3.70;;;1.93;;
9115;SDS011;4593;53.652;10.168;2022-07-23T05:13:35;1.70;;;1.60;;
9115;SDS011;4593;53.652;10.168;2022-07-23T05:16:01;2.90;;;1.50;;
9115;SDS011;4593;53.652;10.168;2022-07-23T05:18:27;4.40;;;1.93;;
9115;SDS011;4593;53.652;10.168;2022-07-23T05:20:53;2.60;;;1.97;;
9115;SDS011;4593;53.652;10.168;2022-07-23T05:23:19;1.97;;;1.60;;
9115;SDS011;4593;53.652;10.168;2022-07-23T05:25:45;1.60;;;1.50;;
9115;SDS011;4593;53.652;10.168;2022-07-23T05:28:11;3.63;;;1.73;;
9115;SDS011;4593;53.652;10.168;2022-07-23T05:30:38;6.10;;;1.90;;
9115;SDS011;4593;53.652;10.168;2022-07-23T05:33:04;1.70;;;1.60;;
9115;SDS011;4593;53.652;10.168;2022-07-23T05:35:30;2.00;;;1.90;;
9115;SDS011;4593;53.652;10.168;2022-07-23T05:37:56;1.90;;;1.70;;
9115;SDS011;4593;53.652;10.168;2022-07-23T05:40:22;3.07;;;2.73;;
9115;SDS011;4593;53.652;10.168;2022-07-23T05:42:48;6.57;;;1.90;;
9115;SDS011;4593;53.652;10.168;2022-07-23T05:45:14;1.67;;;1.57;;
9115;SDS011;4593;53.652;10.168;2022-07-23T05:47:44;1.50;;;1.40;;
9115;SDS011;4593;53.652;10.168;2022-07-23T05:50:10;3.20;;;1.60;;
9115;SDS011;4593;53.652;10.168;2022-07-23T05:52:37;1.70;;;1.60;;
9115;SDS011;4593;53.652;10.168;2022-07-23T05:55:03;1.60;;;1.50;;
9115;SDS011;4593;53.652;10.168;2022-07-23T05:57:29;1.83;;;1.60;;
9115;SDS011;4593;53.652;10.168;2022-07-23T05:59:55;1.60;;;1.50;;
9115;SDS011;4593;53.652;10.168;2022-07-23T06:02:21;2.33;;;1.60;;
9115;SDS011;4593;53.652;10.168;2022-07-23T06:04:47;1.60;;;1.50;;
9115;SDS011;4593;53.652;10.168;2022-07-23T06:07:13;1.53;;;1.43;;
9115;SDS011;4593;53.652;10.168;2022-07-23T06:09:39;1.70;;;1.50;;
9115;SDS011;4593;53.652;10.168;2022-07-23T06:12:05;1.70;;;1.60;;
9115;SDS011;4593;53.652;10.168;2022-07-23T06:14:31;1.63;;;1.53;;
9115;SDS011;4593;53.652;10.168;2022-07-23T06:16:57;2.97;;;1.50;;
9115;SDS011;4593;53.652;10.168;2022-07-23T06:19:24;1.63;;;1.53;;
9115;SDS011;4593;53.652;10.168;2022-07-23T06:21:50;1.57;;;1.47;;
9115;SDS011;4593;53.652;10.168;2022-07-23T06:24:16;1.90;;;1.60;;
9115;SDS011;4593;53.652;10.168;2022-07-23T06:26:41;4.70;;;1.60;;
9115;SDS011;4593;53.652;10.168;2022-07-23T06:29:07;1.23;;;1.23;;
9115;SDS011;4593;53.652;10.168;2022-07-23T06:31:34;1.50;;;1.40;;
9115;SDS011;4593;53.652;10.168;2022-07-23T06:34:00;1.83;;;1.33;;
9115;SDS011;4593;53.652;10.168;2022-07-23T06:36:26;1.50;;;1.40;;
9115;SDS011;4593;53.652;10.168;2022-07-23T06:38:52;1.80;;;1.57;;
9115;SDS011;4593;53.652;10.168;2022-07-23T06:41:18;2.43;;;1.57;;
9115;SDS011;4593;53.652;10.168;2022-07-23T06:43:44;1.50;;;1.40;;
9115;SDS011;4593;53.652;10.168;2022-07-23T06:46:10;2.13;;;1.47;;
9115;SDS011;4593;53.652;10.168;2022-07-23T06:48:36;4.10;;;1.50;;
9115;SDS011;4593;53.652;10.168;2022-07-23T06:51:02;1.50;;;1.40;;
9115;SDS011;4593;53.652;10.168;2022-07-23T06:53:28;1.60;;;1.50;;
9115;SDS011;4593;53.652;10.168;2022-07-23T06:55:54;1.60;;;1.50;;
9115;SDS011;4593;53.652;10.168;2022-07-23T06:58:20;1.50;;;1.30;;
9115;SDS011;4593;53.652;10.168;2022-07-23T07:00:46;1.57;;;1.40;;
9115;SDS011;4593;53.652;10.168;2022-07-23T07:03:12;2.73;;;1.47;;
9115;SDS011;4593;53.652;10.168;2022-07-23T07:05:38;1.50;;;1.40;;
9115;SDS011;4593;53.652;10.168;2022-07-23T07:08:07;1.40;;;1.30;;
9115;SDS011;4593;53.652;10.168;2022-07-23T07:10:33;1.57;;;1.30;;
9115;SDS011;4593;53.652;10.168;2022-07-23T07:12:59;1.67;;;1.57;;
9115;SDS011;4593;53.652;10.168;2022-07-23T07:15:25;1.50;;;1.40;;
9115;SDS011;4593;53.652;10.168;2022-07-23T07:17:51;1.83;;;1.40;;
9115;SDS011;4593;53.652;10.168;2022-07-23T07:20:17;4.23;;;1.40;;
9115;SDS011;4593;53.652;10.168;2022-07-23T07:22:43;2.20;;;1.60;;
9115;SDS011;4593;53.652;10.168;2022-07-23T07:25:09;1.50;;;1.40;;
9115;SDS011;4593;53.652;10.168;2022-07-23T07:27:35;1.60;;;1.50;;
9115;SDS011;4593;53.652;10.168;2022-07-23T07:30:02;1.33;;;1.30;;
9115;SDS011;4593;53.652;10.168;2022-07-23T07:32:28;1.47;;;1.37;;
9115;SDS011;4593;53.652;10.168;2022-07-23T07:34:54;1.40;;;1.30;;
9115;SDS011;4593;53.652;10.168;2022-07-23T07:37:20;1.60;;;1.43;;
9115;SDS011;4593;53.652;10.168;2022-07-23T07:39:46;2.87;;;1.30;;
9115;SDS011;4593;53.652;10.168;2022-07-23T07:42:12;1.30;;;1.30;;
9115;SDS011;4593;53.652;10.168;2022-07-23T07:44:38;1.27;;;1.27;;
9115;SDS011;4593;53.652;10.168;2022-07-23T07:47:04;1.50;;;1.40;;
9115;SDS011;4593;53.652;10.168;2022-07-23T07:49:30;5.70;;;1.70;;
9115;SDS011;4593;53.652;10.168;2022-07-23T07:51:56;1.40;;;1.30;;
9115;SDS011;4593;53.652;10.168;2022-07-23T07:54:21;1.50;;;1.40;;
9115;SDS011;4593;53.652;10.168;2022-07-23T07:56:47;1.73;;;1.30;;
9115;SDS011;4593;53.652;10.168;2022-07-23T07:59:13;1.30;;;1.20;;
9115;SDS011;4593;53.652;10.168;2022-07-23T08:01:40;1.53;;;1.37;;
9115;SDS011;4593;53.652;10.168;2022-07-23T08:04:06;2.47;;;1.30;;
9115;SDS011;4593;53.652;10.168;2022-07-23T08:06:32;1.70;;;1.40;;
9115;SDS011;4593;53.652;10.168;2022-07-23T08:08:58;1.80;;;1.17;;
9115;SDS011;4593;53.652;10.168;2022-07-23T08:11:24;2.13;;;1.50;;
9115;SDS011;4593;53.652;10.168;2022-07-23T08:13:50;1.20;;;1.20;;
9115;SDS011;4593;53.652;10.168;2022-07-23T08:16:16;1.80;;;1.33;;
9115;SDS011;4593;53.652;10.168;2022-07-23T08:18:42;1.40;;;1.30;;
9115;SDS011;4593;53.652;10.168;2022-07-23T08:21:08;1.50;;;1.40;;
9115;SDS011;4593;53.652;10.168;2022-07-23T08:23:34;1.30;;;1.20;;
9115;SDS011;4593;53.652;10.168;2022-07-23T08:26:00;1.57;;;1.47;;
9115;SDS011;4593;53.652;10.168;2022-07-23T08:28:26;2.20;;;1.33;;
9115;SDS011;4593;53.652;10.168;2022-07-23T08:30:52;3.07;;;1.40;;
9115;SDS011;4593;53.652;10.168;2022-07-23T08:33:18;3.90;;;1.63;;
9115;SDS011;4593;53.652;10.168;2022-07-23T08:35:48;2.70;;;1.30;;
9115;SDS011;4593;53.652;10.168;2022-07-23T08:38:16;2.40;;;1.50;;
9115;SDS011;4593;53.652;10.168;2022-07-23T08:40:44;1.50;;;1.40;;
9115;SDS011;4593;53.652;10.168;2022-07-23T08:43:11;1.60;;;1.50;;
9115;SDS011;4593;53.652;10.168;2022-07-23T08:45:40;3.20;;;1.50;;
9115;SDS011;4593;53.652;10.168;2022-07-23T08:48:13;2.40;;;1.40;;
9115;SDS011;4593;53.652;10.168;2022-07-23T08:50:43;1.40;;;1.30;;
9115;SDS011;4593;53.652;10.168;2022-07-23T08:53:10;1.50;;;1.40;;
9115;SDS011;4593;53.652;10.168;2022-07-23T08:55:36;2.43;;;1.30;;
9115;SDS011;4593;53.652;10.168;2022-07-23T08:58:02;4.33;;;1.30;;
9115;SDS011;4593;53.652;10.168;2022-07-23T09:00:28;1.50;;;1.40;;
9115;SDS011;4593;53.652;10.168;2022-07-23T09:02:54;1.40;;;1.30;;
9115;SDS011;4593;53.652;10.168;2022-07-23T09:05:21;1.50;;;1.40;;
9115;SDS011;4593;53.652;10.168;2022-07-23T09:08:06;2.63;;;1.47;;
9115;SDS011;4593;53.652;10.168;2022-07-23T09:13:50;1.20;;;1.20;;
9115;SDS011;4593;53.652;10.168;2022-07-23T09:16:30;1.40;;;1.30;;
9115;SDS011;4593;53.652;10.168;2022-07-23T09:18:57;1.37;;;1.27;;
9115;SDS011;4593;53.652;10.168;2022-07-23T09:21:27;1.30;;;1.20;;
9115;SDS011;4593;53.652;10.168;2022-07-23T09:23:57;1.10;;;1.10;;
9115;SDS011;4593;53.652;10.168;2022-07-23T09:31:31;1.30;;;1.27;;
9115;SDS011;4593;53.652;10.168;2022-07-23T09:34:13;1.30;;;1.20;;
9115;SDS011;4593;53.652;10.168;2022-07-23T09:36:40;1.70;;;1.30;;
9115;SDS011;4593;53.652;10.168;2022-07-23T09:39:06;1.37;;;1.27;;
9115;SDS011;4593;53.652;10.168;2022-07-23T09:41:37;1.30;;;1.20;;
9115;SDS011;4593;53.652;10.168;2022-07-23T09:44:11;1.20;;;1.20;;
9115;SDS011;4593;53.652;10.168;2022-07-23T09:46:44;1.27;;;1.27;;
9115;SDS011;4593;53.652;10.168;2022-07-23T09:49:13;1.37;;;1.27;;
9115;SDS011;4593;53.652;10.168;2022-07-23T09:51:47;1.70;;;1.30;;
9115;SDS011;4593;53.652;10.168;2022-07-23T09:54:21;3.47;;;1.40;;
9115;SDS011;4593;53.652;10.168;2022-07-23T09:56:49;3.43;;;1.37;;
9115;SDS011;4593;53.652;10.168;2022-07-23T09:59:16;1.30;;;1.20;;
9115;SDS011;4593;53.652;10.168;2022-07-23T10:01:44;1.50;;;1.40;;
9115;SDS011;4593;53.652;10.168;2022-07-23T10:04:10;1.63;;;1.40;;
9115;SDS011;4593;53.652;10.168;2022-07-23T10:06:39;1.50;;;1.40;;
9115;SDS011;4593;53.652;10.168;2022-07-23T10:09:05;1.30;;;1.20;;
9115;SDS011;4593;53.652;10.168;2022-07-23T10:11:33;1.97;;;1.40;;
9115;SDS011;4593;53.652;10.168;2022-07-23T10:14:00;1.20;;;1.20;;
9115;SDS011;4593;53.652;10.168;2022-07-23T10:16:29;1.50;;;1.30;;
9115;SDS011;4593;53.652;10.168;2022-07-23T10:18:55;1.30;;;1.20;;
9115;SDS011;4593;53.652;10.168;2022-07-23T10:21:24;1.50;;;1.40;;
9115;SDS011;4593;53.652;10.168;2022-07-23T10:23:58;1.60;;;1.50;;
9115;SDS011;4593;53.652;10.168;2022-07-23T10:26:39;1.40;;;1.30;;
9115;SDS011;4593;53.652;10.168;2022-07-23T10:37:27;2.83;;;1.30;;
9115;SDS011;4593;53.652;10.168;2022-07-23T10:42:39;3.70;;;1.27;;
9115;SDS011;4593;53.652;10.168;2022-07-23T10:45:23;3.53;;;1.33;;
9115;SDS011;4593;53.652;10.168;2022-07-23T10:47:49;1.13;;;1.13;;
9115;SDS011;4593;53.652;10.168;2022-07-23T10:50:25;1.40;;;1.30;;
9115;SDS011;4593;53.652;10.168;2022-07-23T10:55:46;1.33;;;1.30;;
9115;SDS011;4593;53.652;10.168;2022-07-23T10:58:17;1.60;;;1.50;;
9115;SDS011;4593;53.652;10.168;2022-07-23T11:00:44;1.40;;;1.30;;
9115;SDS011;4593;53.652;10.168;2022-07-23T11:06:04;1.40;;;1.30;;
9115;SDS011;4593;53.652;10.168;2022-07-23T11:08:31;1.60;;;1.50;;
9115;SDS011;4593;53.652;10.168;2022-07-23T11:13:29;1.40;;;1.30;;
9115;SDS011;4593;53.652;10.168;2022-07-23T11:24:03;1.50;;;1.40;;
9115;SDS011;4593;53.652;10.168;2022-07-23T11:26:49;2.20;;;1.30;;
9115;SDS011;4593;53.652;10.168;2022-07-23T11:34:50;1.33;;;1.23;;
9115;SDS011;4593;53.652;10.168;2022-07-23T11:39:56;1.30;;;1.20;;
9115;SDS011;4593;53.652;10.168;2022-07-23T11:42:22;2.60;;;1.17;;
9115;SDS011;4593;53.652;10.168;2022-07-23T11:44:49;1.30;;;1.20;;
9115;SDS011;4593;53.652;10.168;2022-07-23T11:47:20;1.07;;;1.07;;
9115;SDS011;4593;53.652;10.168;2022-07-23T11:49:55;2.33;;;1.57;;
9115;SDS011;4593;53.652;10.168;2022-07-23T11:52:22;2.07;;;1.50;;
9115;SDS011;4593;53.652;10.168;2022-07-23T11:57:19;1.40;;;1.30;;
9115;SDS011;4593;53.652;10.168;2022-07-23T11:59:50;2.57;;;1.43;;
9115;SDS011;4593;53.652;10.168;2022-07-23T12:02:17;2.00;;;1.30;;
9115;SDS011;4593;53.652;10.168;2022-07-23T12:04:44;1.50;;;1.40;;
9115;SDS011;4593;53.652;10.168;2022-07-23T12:09:49;1.40;;;1.30;;
9115;SDS011;4593;53.652;10.168;2022-07-23T12:12:15;2.70;;;1.30;;
9115;SDS011;4593;53.652;10.168;2022-07-23T12:14:51;1.73;;;1.50;;
9115;SDS011;4593;53.652;10.168;2022-07-23T12:17:18;1.40;;;1.30;;
9115;SDS011;4593;53.652;10.168;2022-07-23T12:19:45;1.63;;;1.30;;
9115;SDS011;4593;53.652;10.168;2022-07-23T12:22:12;1.40;;;1.30;;
9115;SDS011;4593;53.652;10.168;2022-07-23T12:24:56;1.43;;;1.33;;
9115;SDS011;4593;53.652;10.168;2022-07-23T12:27:23;1.37;;;1.30;;
9115;SDS011;4593;53.652;10.168;2022-07-23T12:29:49;1.57;;;1.47;;
9115;SDS011;4593;53.652;10.168;2022-07-23T12:32:19;2.93;;;1.30;;
9115;SDS011;4593;53.652;10.168;2022-07-23T12:34:45;1.30;;;1.30;;
9115;SDS011;4593;53.652;10.168;2022-07-23T12:37:31;1.73;;;1.27;;
9115;SDS011;4593;53.652;10.168;2022-07-23T12:42:49;1.40;;;1.30;;
9115;SDS011;4593;53.652;10.168;2022-07-23T12:45:16;1.87;;;1.40;;
9115;SDS011;4593;53.652;10.168;2022-07-23T12:50:32;1.83;;;1.47;;
9115;SDS011;4593;53.652;10.168;2022-07-23T12:53:08;3.03;;;1.90;;
9115;SDS011;4593;53.652;10.168;2022-07-23T12:55:35;6.23;;;1.50;;
9115;SDS011;4593;53.652;10.168;2022-07-23T12:58:17;1.10;;;1.10;;
9115;SDS011;4593;53.652;10.168;2022-07-23T13:00:54;3.60;;;1.30;;
9115;SDS011;4593;53.652;10.168;2022-07-23T13:03:29;1.63;;;1.30;;
9115;SDS011;4593;53.652;10.168;2022-07-23T13:05:56;3.50;;;1.40;;
9115;SDS011;4593;53.652;10.168;2022-07-23T13:08:22;1.20;;;1.20;;
9115;SDS011;4593;53.652;10.168;2022-07-23T13:10:49;1.63;;;1.50;;
9115;SDS011;4593;53.652;10.168;2022-07-23T13:13:16;1.20;;;1.20;;
9115;SDS011;4593;53.652;10.168;2022-07-23T13:15:43;1.17;;;1.17;;
9115;SDS011;4593;53.652;10.168;2022-07-23T13:18:09;1.40;;;1.30;;
9115;SDS011;4593;53.652;10.168;2022-07-23T13:20:35;1.60;;;1.50;;
9115;SDS011;4593;53.652;10.168;2022-07-23T13:23:03;4.77;;;1.30;;
9115;SDS011;4593;53.652;10.168;2022-07-23T13:25:30;2.27;;;1.50;;
9115;SDS011;4593;53.652;10.168;2022-07-23T13:27:55;1.40;;;1.30;;
9115;SDS011;4593;53.652;10.168;2022-07-23T13:30:22;1.20;;;1.20;;
9115;SDS011;4593;53.652;10.168;2022-07-23T13:32:48;1.33;;;1.30;;
9115;SDS011;4593;53.652;10.168;2022-07-23T13:35:14;1.40;;;1.30;;
9115;SDS011;4593;53.652;10.168;2022-07-23T13:37:40;3.03;;;1.23;;
9115;SDS011;4593;53.652;10.168;2022-07-23T13:40:06;1.27;;;1.27;;
9115;SDS011;4593;53.652;10.168;2022-07-23T13:42:32;1.33;;;1.30;;
9115;SDS011;4593;53.652;10.168;2022-07-23T13:44:59;2.07;;;1.30;;
9115;SDS011;4593;53.652;10.168;2022-07-23T13:47:24;1.33;;;1.23;;
9115;SDS011;4593;53.652;10.168;2022-07-23T13:49:51;1.40;;;1.30;;
9115;SDS011;4593;53.652;10.168;2022-07-23T13:52:17;1.40;;;1.30;;
9115;SDS011;4593;53.652;10.168;2022-07-23T13:54:43;1.23;;;1.23;;
9115;SDS011;4593;53.652;10.168;2022-07-23T13:57:08;1.50;;;1.40;;
9115;SDS011;4593;53.652;10.168;2022-07-23T13:59:34;2.30;;;1.40;;
9115;SDS011;4593;53.652;10.168;2022-07-23T14:02:04;1.50;;;1.40;;
9115;SDS011;4593;53.652;10.168;2022-07-23T14:04:30;2.10;;;1.30;;
9115;SDS011;4593;53.652;10.168;2022-07-23T14:06:56;1.30;;;1.30;;
9115;SDS011;4593;53.652;10.168;2022-07-23T14:09:23;1.50;;;1.40;;
9115;SDS011;4593;53.652;10.168;2022-07-23T14:11:49;1.40;;;1.30;;
9115;SDS011;4593;53.652;10.168;2022-07-23T14:14:16;1.90;;;1.33;;
9115;SDS011;4593;53.652;10.168;2022-07-23T14:16:42;1.40;;;1.30;;
9115;SDS011;4593;53.652;10.168;2022-07-23T14:19:08;3.03;;;1.40;;
9115;SDS011;4593;53.652;10.168;2022-07-23T14:21:34;2.47;;;1.30;;
9115;SDS011;4593;53.652;10.168;2022-07-23T14:24:00;1.40;;;1.30;;
9115;SDS011;4593;53.652;10.168;2022-07-23T14:26:27;2.17;;;1.40;;
9115;SDS011;4593;53.652;10.168;2022-07-23T14:28:52;1.47;;;1.30;;
9115;SDS011;4593;53.652;10.168;2022-07-23T14:31:18;2.20;;;1.50;;
9115;SDS011;4593;53.652;10.168;2022-07-23T14:33:44;2.33;;;1.40;;
9115;SDS011;4593;53.652;10.168;2022-07-23T14:36:11;1.60;;;1.20;;
9115;SDS011;4593;53.652;10.168;2022-07-23T14:38:37;1.73;;;1.40;;
9115;SDS011;4593;53.652;10.168;2022-07-23T14:41:02;1.50;;;1.40;;
9115;SDS011;4593;53.652;10.168;2022-07-23T14:43:31;1.50;;;1.27;;
9115;SDS011;4593;53.652;10.168;2022-07-23T14:45:58;1.20;;;1.20;;
9115;SDS011;4593;53.652;10.168;2022-07-23T14:48:23;1.30;;;1.20;;
9115;SDS011;4593;53.652;10.168;2022-07-23T14:50:49;1.20;;;1.20;;
9115;SDS011;4593;53.652;10.168;2022-07-23T14:53:15;1.80;;;1.20;;
9115;SDS011;4593;53.652;10.168;2022-07-23T14:55:41;1.40;;;1.30;;
9115;SDS011;4593;53.652;10.168;2022-07-23T14:58:07;1.30;;;1.30;;
9115;SDS011;4593;53.652;10.168;2022-07-23T15:00:33;1.50;;;1.40;;
9115;SDS011;4593;53.652;10.168;2022-07-23T15:02:59;1.63;;;1.50;;
9115;SDS011;4593;53.652;10.168;2022-07-23T15:05:25;1.73;;;1.30;;
9115;SDS011;4593;53.652;10.168;2022-07-23T15:07:52;1.40;;;1.30;;
9115;SDS011;4593;53.652;10.168;2022-07-23T15:10:18;1.60;;;1.50;;
9115;SDS011;4593;53.652;10.168;2022-07-23T15:12:44;2.23;;;1.40;;
9115;SDS011;4593;53.652;10.168;2022-07-23T15:15:10;1.43;;;1.30;;
9115;SDS011;4593;53.652;10.168;2022-07-23T15:17:36;1.40;;;1.30;;
9115;SDS011;4593;53.652;10.168;2022-07-23T15:20:03;1.37;;;1.27;;
9115;SDS011;4593;53.652;10.168;2022-07-23T15:22:29;1.40;;;1.30;;
9115;SDS011;4593;53.652;10.168;2022-07-23T15:24:55;1.53;;;1.37;;
9115;SDS011;4593;53.652;10.168;2022-07-23T15:27:21;1.40;;;1.30;;
9115;SDS011;4593;53.652;10.168;2022-07-23T15:29:56;1.90;;;1.30;;
9115;SDS011;4593;53.652;10.168;2022-07-23T15:32:23;1.20;;;1.20;;
9115;SDS011;4593;53.652;10.168;2022-07-23T15:34:51;1.37;;;1.27;;
9115;SDS011;4593;53.652;10.168;2022-07-23T15:37:17;1.40;;;1.30;;
9115;SDS011;4593;53.652;10.168;2022-07-23T15:39:43;1.80;;;1.30;;
9115;SDS011;4593;53.652;10.168;2022-07-23T15:42:09;1.87;;;1.50;;
9115;SDS011;4593;53.652;10.168;2022-07-23T15:44:35;2.70;;;1.23;;
9115;SDS011;4593;53.652;10.168;2022-07-23T15:47:00;1.40;;;1.30;;
9115;SDS011;4593;53.652;10.168;2022-07-23T15:49:27;1.50;;;1.33;;
9115;SDS011;4593;53.652;10.168;2022-07-23T15:51:53;1.53;;;1.40;;
9115;SDS011;4593;53.652;10.168;2022-07-23T15:54:19;1.33;;;1.30;;